Time;durP1;ratioP1;P1;durP2;ratioP2;P2;SDS_P1;SDS_P2;PMS_P1;PMS_P2;Temp;Humidity;BMP_temperature;BMP_pressure;BME280_temperature;BME280_humidity;BME280_pressure;Samples;Min_cycle;Max_cycle;Signal;HPM_P1;HPM_P2
2023/09/01 00:00:57;;;;;;;3.88;1.73;;;;;;;;;;4992580;28;93041;-80
2023/09/01 00:03:51;;;;;;;8.25;1.80;;;;;;;;;;4979562;28;93173;-80
2023/09/01 00:06:18;;;;;;;6.13;1.80;;;;;;;;;;4989860;28;93048;-80
2023/09/01 00:08:44;;;;;;;5.07;1.45;;;;;;;;;;4973139;28;91711;-80
2023/09/01 00:11:11;;;;;;;4.80;1.50;;;;;;;;;;4990218;28;92842;-80
2023/09/01 00:13:38;;;;;;;3.60;1.60;;;;;;;;;;4989661;28;93595;-80
2023/09/01 00:16:05;;;;;;;3.97;1.60;;;;;;;;;;4988240;28;94856;-80
2023/09/01 00:18:32;;;;;;;3.78;1.58;;;;;;;;;;4989533;28;95151;-79
2023/09/01 00:21:03;;;;;;;5.18;1.60;;;;;;;;;;4951832;28;94205;-79
2023/09/01 00:23:30;;;;;;;7.35;1.77;;;;;;;;;;4966495;28;92492;-80
2023/09/01 00:25:59;;;;;;;5.35;1.60;;;;;;;;;;4971554;28;93408;-80
2023/09/01 00:28:26;;;;;;;4.35;1.58;;;;;;;;;;4971002;28;92556;-79
2023/09/01 00:30:57;;;;;;;6.20;1.80;;;;;;;;;;4989420;28;93100;-80
2023/09/01 00:33:25;;;;;;;7.82;2.00;;;;;;;;;;4989644;28;92451;-80
2023/09/01 00:35:52;;;;;;;5.97;2.00;;;;;;;;;;4971287;28;92647;-79
2023/09/01 00:38:18;;;;;;;;;;;;;;;;;;4971499;28;95469;-79
2023/09/01 00:40:46;;;;;;;8.43;2.05;;;;;;;;;;4988481;28;112328;-78
2023/09/01 00:43:13;;;;;;;7.40;1.83;;;;;;;;;;4989308;28;94018;-79
2023/09/01 00:45:40;;;;;;;6.63;1.80;;;;;;;;;;4992328;28;92832;-78
2023/09/01 00:48:08;;;;;;;6.47;2.00;;;;;;;;;;4971214;28;92505;-79
2023/09/01 00:50:36;;;;;;;5.95;2.10;;;;;;;;;;4989442;28;93030;-79
2023/09/01 00:53:05;;;;;;;5.68;1.83;;;;;;;;;;4954698;28;95846;-79
2023/09/01 00:55:33;;;;;;;7.50;1.85;;;;;;;;;;4971370;28;92397;-79
2023/09/01 00:58:00;;;;;;;5.25;1.90;;;;;;;;;;4989864;28;92634;-79
2023/09/01 01:00:27;;;;;;;6.32;2.10;;;;;;;;;;4989234;28;93234;-79
2023/09/01 01:02:55;;;;;;;6.68;2.10;;;;;;;;;;4989245;28;93637;-79
2023/09/01 01:05:23;;;;;;;;;;;;;;;;;;4969882;28;95551;-79
2023/09/01 01:08:00;;;;;;;7.43;2.30;;;;;;;;;;4974489;28;119077;-79
2023/09/01 01:10:35;;;;;;;9.23;1.70;;;;;;;;;;4989144;28;93887;-80
2023/09/01 01:13:13;;;;;;;6.97;2.00;;;;;;;;;;4988552;28;93313;-80
2023/09/01 01:15:40;;;;;;;6.32;1.95;;;;;;;;;;4989258;28;92457;-80
2023/09/01 01:18:10;;;;;;;6.30;1.70;;;;;;;;;;4970299;28;96600;-80
2023/09/01 01:20:38;;;;;;;5.68;1.85;;;;;;;;;;4988790;28;93050;-80
2023/09/01 01:23:09;;;;;;;6.10;1.83;;;;;;;;;;4988878;28;91760;-80
2023/09/01 01:25:37;;;;;;;6.25;1.90;;;;;;;;;;4979565;28;92985;-80
2023/09/01 01:28:07;;;;;;;7.13;1.92;;;;;;;;;;4984376;28;93655;-80
2023/09/01 01:30:36;;;;;;;8.20;2.08;;;;;;;;;;4971806;28;95263;-80
2023/09/01 01:33:03;;;;;;;4.18;1.80;;;;;;;;;;4988322;28;92648;-79
2023/09/01 01:35:39;;;;;;;6.75;2.05;;;;;;;;;;4988702;28;93035;-80
2023/09/01 01:38:10;;;;;;;6.47;1.85;;;;;;;;;;4988052;28;92751;-80
2023/09/01 01:40:37;;;;;;;5.65;1.50;;;;;;;;;;4953818;28;96155;-80
2023/09/01 01:43:04;;;;;;;;;;;;;;;;;;4988687;28;93065;-80
2023/09/01 01:45:31;;;;;;;5.47;1.90;;;;;;;;;;4989521;28;105583;-80
2023/09/01 01:47:58;;;;;;;4.38;1.70;;;;;;;;;;4970386;28;95501;-80
2023/09/01 01:50:25;;;;;;;4.65;1.60;;;;;;;;;;4991445;28;92866;-79
2023/09/01 01:52:52;;;;;;;4.05;1.90;;;;;;;;;;4975925;28;93619;-79
2023/09/01 01:55:18;;;;;;;5.93;1.75;;;;;;;;;;4989957;28;94797;-79
2023/09/01 01:57:45;;;;;;;4.38;1.55;;;;;;;;;;4991450;28;95475;-78
2023/09/01 02:00:14;;;;;;;7.55;1.92;;;;;;;;;;4973010;28;95839;-79
2023/09/01 02:02:42;;;;;;;4.20;1.80;;;;;;;;;;4991278;28;92942;-79
2023/09/01 02:05:09;;;;;;;4.72;1.95;;;;;;;;;;4991726;28;93136;-78
2023/09/01 02:07:36;;;;;;;5.10;1.67;;;;;;;;;;4991457;28;92990;-79
2023/09/01 02:10:08;;;;;;;6.00;1.90;;;;;;;;;;4956762;28;92471;-79
2023/09/01 02:12:35;;;;;;;5.32;1.80;;;;;;;;;;4995016;28;92819;-79
2023/09/01 02:15:03;;;;;;;5.95;2.00;;;;;;;;;;4973550;28;92713;-79
2023/09/01 02:17:29;;;;;;;4.50;1.73;;;;;;;;;;4973317;28;95461;-80
2023/09/01 02:19:56;;;;;;;4.80;1.70;;;;;;;;;;4989743;28;95838;-80
2023/09/01 02:22:23;;;;;;;6.78;1.88;;;;;;;;;;4991269;28;92433;-79
2023/09/01 02:24:49;;;;;;;6.32;1.90;;;;;;;;;;4971769;28;95888;-79
2023/09/01 02:27:16;;;;;;;4.78;1.90;;;;;;;;;;4972523;28;97815;-79
2023/09/01 02:29:44;;;;;;;5.00;1.80;;;;;;;;;;4972863;28;92998;-80
2023/09/01 02:32:10;;;;;;;6.18;2.08;;;;;;;;;;4972887;28;95899;-79
2023/09/01 02:34:37;;;;;;;6.68;1.90;;;;;;;;;;4993773;28;93235;-79
2023/09/01 02:37:04;;;;;;;6.63;2.05;;;;;;;;;;4974014;28;93582;-80
2023/09/01 02:39:30;;;;;;;6.20;1.92;;;;;;;;;;4991007;28;93234;-80
2023/09/01 02:42:00;;;;;;;5.20;1.77;;;;;;;;;;4991056;28;92734;-80
2023/09/01 02:44:26;;;;;;;5.40;2.05;;;;;;;;;;4989858;28;94872;-80
2023/09/01 02:46:53;;;;;;;4.07;1.85;;;;;;;;;;4993367;28;93058;-79
2023/09/01 02:49:19;;;;;;;5.28;1.80;;;;;;;;;;4966542;28;92666;-79
2023/09/01 02:51:48;;;;;;;7.13;2.25;;;;;;;;;;4967448;28;96018;-79
2023/09/01 02:54:15;;;;;;;4.90;2.08;;;;;;;;;;4996171;28;93319;-78
2023/09/01 02:56:42;;;;;;;4.80;1.90;;;;;;;;;;5003653;28;92530;-80
2023/09/01 02:59:09;;;;;;;8.05;2.30;;;;;;;;;;4981505;28;95700;-80
2023/09/01 03:01:36;;;;;;;6.22;2.13;;;;;;;;;;5000706;28;91689;-80
2023/09/01 03:04:06;;;;;;;;;;;;;;;;;;4964912;28;93588;-80
2023/09/01 03:06:34;;;;;;;9.85;2.63;;;;;;;;;;4981848;28;95642;-79
2023/09/01 03:09:00;;;;;;;7.90;2.45;;;;;;;;;;4977824;28;94885;-79
2023/09/01 03:11:27;;;;;;;7.05;2.42;;;;;;;;;;4990371;28;95056;-79
2023/09/01 03:13:53;;;;;;;7.18;2.40;;;;;;;;;;4967758;28;94661;-79
2023/09/01 03:16:21;;;;;;;7.63;2.50;;;;;;;;;;4995142;28;92902;-79
2023/09/01 03:18:48;;;;;;;6.53;2.50;;;;;;;;;;4986773;28;95537;-80
2023/09/01 03:21:15;;;;;;;7.95;2.53;;;;;;;;;;4979351;28;92512;-80
2023/09/01 03:23:41;;;;;;;6.30;2.40;;;;;;;;;;4992711;28;93082;-80
2023/09/01 03:26:08;;;;;;;7.32;2.50;;;;;;;;;;4992392;28;92380;-80
2023/09/01 03:28:35;;;;;;;8.52;2.67;;;;;;;;;;4974056;28;93222;-80
2023/09/01 03:31:07;;;;;;;6.07;2.50;;;;;;;;;;4972592;28;95855;-80
2023/09/01 03:33:36;;;;;;;7.68;2.72;;;;;;;;;;4970491;28;97978;-80
2023/09/01 03:36:07;;;;;;;8.63;2.70;;;;;;;;;;4972267;28;93090;-80
2023/09/01 03:38:34;;;;;;;8.52;2.80;;;;;;;;;;4972330;28;94221;-79
2023/09/01 03:41:04;;;;;;;8.98;3.10;;;;;;;;;;4974618;28;96057;-79
2023/09/01 03:43:31;;;;;;;9.10;3.08;;;;;;;;;;4972226;28;92687;-80
2023/09/01 03:45:58;;;;;;;9.93;3.20;;;;;;;;;;4971491;28;95160;-80
2023/09/01 03:48:25;;;;;;;7.93;2.53;;;;;;;;;;4971716;28;92930;-79
2023/09/01 03:51:10;;;;;;;6.68;2.70;;;;;;;;;;4990925;28;93680;-80
2023/09/01 03:53:38;;;;;;;8.18;2.83;;;;;;;;;;4971387;28;94116;-80
2023/09/01 03:56:09;;;;;;;7.63;2.67;;;;;;;;;;4971440;28;92632;-80
2023/09/01 03:58:36;;;;;;;9.57;2.90;;;;;;;;;;4969648;28;95560;-80
2023/09/01 04:01:08;;;;;;;8.23;3.00;;;;;;;;;;4992378;28;94044;-80
2023/09/01 04:03:35;;;;;;;9.13;2.90;;;;;;;;;;4978444;28;95001;-80
2023/09/01 04:06:04;;;;;;;7.28;3.13;;;;;;;;;;4957226;28;95921;-81
2023/09/01 04:08:34;;;;;;;9.25;2.88;;;;;;;;;;4989342;28;92435;-80
2023/09/01 04:11:04;;;;;;;9.77;2.50;;;;;;;;;;4971478;28;95604;-81
2023/09/01 04:13:31;;;;;;;9.10;2.88;;;;;;;;;;4989333;28;93128;-81
2023/09/01 04:15:58;;;;;;;7.88;2.90;;;;;;;;;;4989513;28;92026;-81
2023/09/01 04:18:25;;;;;;;6.32;2.50;;;;;;;;;;4970924;28;94907;-80
2023/09/01 04:20:52;;;;;;;8.13;2.90;;;;;;;;;;4971099;28;95831;-80
2023/09/01 04:23:19;;;;;;;8.85;2.90;;;;;;;;;;4972356;28;94950;-80
2023/09/01 04:25:47;;;;;;;8.73;2.80;;;;;;;;;;4970853;28;95263;-80
2023/09/01 04:28:17;;;;;;;10.95;3.17;;;;;;;;;;4971222;28;92515;-80
2023/09/01 04:30:44;;;;;;;8.05;2.70;;;;;;;;;;4989174;28;93028;-80
2023/09/01 04:33:12;;;;;;;11.60;3.10;;;;;;;;;;4970859;28;96040;-80
2023/09/01 04:35:39;;;;;;;10.52;2.92;;;;;;;;;;4971175;28;92544;-80
2023/09/01 04:38:06;;;;;;;8.75;2.72;;;;;;;;;;4971127;28;95787;-80
2023/09/01 04:40:33;;;;;;;8.60;2.67;;;;;;;;;;4971360;28;95200;-80
2023/09/01 04:42:59;;;;;;;7.47;2.60;;;;;;;;;;4989229;28;92429;-80
2023/09/01 04:45:26;;;;;;;9.60;2.88;;;;;;;;;;4973630;28;95023;-80
2023/09/01 04:47:53;;;;;;;7.43;2.75;;;;;;;;;;4956938;28;94938;-80
2023/09/01 04:50:20;;;;;;;7.72;2.90;;;;;;;;;;4967992;28;98221;-80
2023/09/01 04:52:47;;;;;;;7.57;2.90;;;;;;;;;;4971072;28;95573;-80
2023/09/01 04:55:13;;;;;;;7.75;2.67;;;;;;;;;;4970809;28;92574;-80
2023/09/01 04:57:41;;;;;;;9.52;2.65;;;;;;;;;;4971254;28;93988;-80
2023/09/01 05:00:15;;;;;;;7.50;2.72;;;;;;;;;;4970780;28;95907;-80
2023/09/01 05:02:46;;;;;;;7.82;2.72;;;;;;;;;;4964115;28;92526;-79
2023/09/01 05:05:13;;;;;;;7.45;2.67;;;;;;;;;;4971338;28;96057;-79
2023/09/01 05:07:40;;;;;;;7.20;2.70;;;;;;;;;;4974099;28;95365;-80
2023/09/01 05:10:08;;;;;;;8.10;2.90;;;;;;;;;;4971078;28;95629;-80
2023/09/01 05:12:35;;;;;;;9.63;2.83;;;;;;;;;;4968653;28;98185;-80
2023/09/01 05:15:02;;;;;;;7.13;2.70;;;;;;;;;;4988435;28;92437;-80
2023/09/01 05:17:29;;;;;;;6.43;2.50;;;;;;;;;;4988400;28;92807;-79
2023/09/01 05:19:56;;;;;;;8.23;2.72;;;;;;;;;;4969158;28;95387;-81
2023/09/01 05:22:23;;;;;;;;;;;;;;;;;;4970631;28;93554;-80
2023/09/01 05:24:49;;;;;;;10.23;3.05;;;;;;;;;;4989765;28;92525;-80
2023/09/01 05:27:19;;;;;;;5.50;2.53;;;;;;;;;;4989071;28;92508;-80
2023/09/01 05:29:47;;;;;;;6.85;2.53;;;;;;;;;;4976899;28;91857;-80
2023/09/01 05:32:15;;;;;;;7.60;2.80;;;;;;;;;;4973531;28;95941;-80
2023/09/01 05:34:42;;;;;;;7.25;2.60;;;;;;;;;;4972976;28;92613;-80
2023/09/01 05:37:11;;;;;;;7.60;2.60;;;;;;;;;;4954764;28;95483;-80
2023/09/01 05:39:38;;;;;;;8.27;2.65;;;;;;;;;;4971179;28;93108;-80
2023/09/01 05:42:06;;;;;;;8.10;2.80;;;;;;;;;;4952981;28;94539;-80
2023/09/01 05:44:33;;;;;;;9.23;2.83;;;;;;;;;;4953660;28;96012;-80
2023/09/01 05:46:59;;;;;;;7.30;3.00;;;;;;;;;;4966234;28;96191;-80
2023/09/01 05:49:26;;;;;;;7.30;2.78;;;;;;;;;;4973026;28;92531;-80
2023/09/01 05:51:52;;;;;;;9.45;2.80;;;;;;;;;;4994236;28;92879;-80
2023/09/01 05:54:19;;;;;;;7.28;2.65;;;;;;;;;;4991887;28;93269;-80
2023/09/01 05:56:46;;;;;;;9.65;2.83;;;;;;;;;;4973442;28;93068;-80
2023/09/01 05:59:12;;;;;;;9.95;3.00;;;;;;;;;;4992751;28;93248;-82
2023/09/01 06:01:39;;;;;;;9.85;2.70;;;;;;;;;;4971794;28;95026;-78
2023/09/01 06:04:06;;;;;;;11.23;3.00;;;;;;;;;;4968949;28;95131;-80
2023/09/01 06:06:34;;;;;;;10.95;2.97;;;;;;;;;;4991186;28;93158;-81
2023/09/01 06:09:01;;;;;;;10.82;3.00;;;;;;;;;;4990367;28;92488;-79
2023/09/01 06:11:28;;;;;;;10.00;3.22;;;;;;;;;;4993285;28;92998;-80
2023/09/01 06:13:55;;;;;;;9.27;2.85;;;;;;;;;;4990197;28;92554;-79
2023/09/01 06:16:22;;;;;;;7.68;2.83;;;;;;;;;;4990511;28;93021;-79
2023/09/01 06:18:48;;;;;;;7.28;2.78;;;;;;;;;;4989978;28;92239;-79
2023/09/01 06:21:15;;;;;;;11.27;3.10;;;;;;;;;;4996667;28;92666;-80
2023/09/01 06:23:44;;;;;;;9.52;3.00;;;;;;;;;;4994834;28;92969;-80
2023/09/01 06:26:14;;;;;;;11.60;3.60;;;;;;;;;;4988190;28;95635;-80
2023/09/01 06:28:41;;;;;;;10.77;3.17;;;;;;;;;;4979709;28;93606;-80
2023/09/01 06:31:09;;;;;;;12.48;4.82;;;;;;;;;;4973089;28;92862;-79
2023/09/01 06:33:36;;;;;;;9.27;4.32;;;;;;;;;;4987136;28;94776;-80
2023/09/01 06:36:04;;;;;;;8.50;3.00;;;;;;;;;;4988193;28;93203;-79
2023/09/01 06:38:30;;;;;;;6.32;2.70;;;;;;;;;;4996522;28;94827;-80
2023/09/01 06:40:57;;;;;;;8.10;3.00;;;;;;;;;;4990099;28;92808;-81
2023/09/01 06:43:23;;;;;;;8.65;2.78;;;;;;;;;;4979385;28;93465;-80
2023/09/01 06:45:50;;;;;;;13.15;5.53;;;;;;;;;;4990218;28;93116;-81
2023/09/01 06:48:16;;;;;;;10.93;4.53;;;;;;;;;;4996789;28;92528;-80
2023/09/01 06:50:43;;;;;;;10.75;4.30;;;;;;;;;;4970779;28;95049;-80
2023/09/01 06:53:10;;;;;;;12.10;4.00;;;;;;;;;;4970166;28;93548;-81
2023/09/01 06:55:36;;;;;;;10.05;4.00;;;;;;;;;;4993746;28;92974;-81
2023/09/01 06:58:03;;;;;;;9.35;3.08;;;;;;;;;;4971459;28;96236;-82
2023/09/01 07:00:29;;;;;;;13.73;4.38;;;;;;;;;;4990286;28;92486;-80
2023/09/01 07:02:56;;;;;;;10.35;3.28;;;;;;;;;;4989689;28;92883;-81
2023/09/01 07:05:23;;;;;;;9.60;2.92;;;;;;;;;;4975663;28;94806;-84
2023/09/01 07:07:52;;;;;;;10.35;3.42;;;;;;;;;;4973477;28;92115;-84
2023/09/01 07:10:18;;;;;;;9.77;4.30;;;;;;;;;;4980375;28;92644;-83
2023/09/01 07:12:45;;;;;;;8.45;2.95;;;;;;;;;;4998080;28;93125;-83
2023/09/01 07:15:12;;;;;;;8.02;2.65;;;;;;;;;;4970825;28;95169;-83
2023/09/01 07:17:38;;;;;;;9.43;3.83;;;;;;;;;;4974663;28;95117;-83
2023/09/01 07:20:05;;;;;;;11.60;4.05;;;;;;;;;;4990315;28;92513;-81
2023/09/01 07:22:32;;;;;;;11.27;3.50;;;;;;;;;;4989760;28;94019;-81
2023/09/01 07:24:59;;;;;;;9.48;3.03;;;;;;;;;;4991341;28;94318;-81
2023/09/01 07:27:25;;;;;;;10.85;4.60;;;;;;;;;;4991668;28;92423;-81
2023/09/01 07:29:52;;;;;;;11.30;3.35;;;;;;;;;;4989898;28;92509;-83
2023/09/01 07:32:19;;;;;;;7.15;2.70;;;;;;;;;;4989230;28;93511;-81
2023/09/01 07:34:48;;;;;;;6.10;2.67;;;;;;;;;;4969861;28;92850;-81
2023/09/01 07:37:15;;;;;;;8.57;2.63;;;;;;;;;;4988813;28;92519;-82
2023/09/01 07:39:42;;;;;;;8.88;3.70;;;;;;;;;;4998680;28;95451;-81
2023/09/01 07:42:08;;;;;;;9.40;3.60;;;;;;;;;;4992715;28;94023;-82
2023/09/01 07:44:35;;;;;;;8.18;2.70;;;;;;;;;;4988681;28;92723;-81
2023/09/01 07:47:02;;;;;;;7.43;2.55;;;;;;;;;;4988570;28;93107;-80
2023/09/01 07:49:29;;;;;;;8.77;2.80;;;;;;;;;;4988232;28;93756;-79
2023/09/01 07:51:55;;;;;;;6.95;2.65;;;;;;;;;;4988438;28;93355;-79
2023/09/01 07:54:22;;;;;;;9.57;3.22;;;;;;;;;;4989203;28;92990;-81
2023/09/01 07:56:48;;;;;;;6.22;2.35;;;;;;;;;;4989126;28;92757;-80
2023/09/01 07:59:15;;;;;;;9.25;2.88;;;;;;;;;;4957875;28;93551;-81
2023/09/01 08:01:42;;;;;;;8.40;2.65;;;;;;;;;;4974997;28;92539;-79
2023/09/01 08:04:09;;;;;;;6.13;2.28;;;;;;;;;;4969965;28;97308;-82
2023/09/01 08:06:35;;;;;;;9.07;3.58;;;;;;;;;;4970501;28;92526;-81
2023/09/01 08:09:03;;;;;;;7.90;3.15;;;;;;;;;;4969262;28;92902;-79
2023/09/01 08:11:29;;;;;;;8.02;2.40;;;;;;;;;;4969507;28;93734;-79
2023/09/01 08:13:56;;;;;;;9.48;3.08;;;;;;;;;;4972146;28;93524;-81
2023/09/01 08:16:23;;;;;;;6.90;2.50;;;;;;;;;;4976937;28;93508;-81
2023/09/01 08:18:49;;;;;;;6.97;2.35;;;;;;;;;;4953175;28;95347;-81
2023/09/01 08:21:16;;;;;;;6.47;2.30;;;;;;;;;;4973782;28;92297;-81
2023/09/01 08:23:43;;;;;;;5.78;2.30;;;;;;;;;;4970243;28;93790;-80
2023/09/01 08:26:09;;;;;;;7.97;2.35;;;;;;;;;;4970138;28;92420;-80
2023/09/01 08:28:36;;;;;;;7.53;2.50;;;;;;;;;;4968678;28;96214;-80
2023/09/01 08:31:03;;;;;;;6.88;2.47;;;;;;;;;;4988370;28;93043;-80
2023/09/01 08:33:30;;;;;;;5.97;2.40;;;;;;;;;;4988560;28;92460;-80
2023/09/01 08:36:00;;;;;;;8.07;2.28;;;;;;;;;;4970870;28;93379;-78
2023/09/01 08:38:26;;;;;;;8.73;2.80;;;;;;;;;;4985958;28;93035;-79
2023/09/01 08:41:02;;;;;;;7.78;2.97;;;;;;;;;;4988582;28;92605;-79
2023/09/01 08:43:32;;;;;;;7.18;2.67;;;;;;;;;;4978940;28;94284;-79
2023/09/01 08:45:59;;;;;;;9.02;2.58;;;;;;;;;;4985233;28;92310;-80
2023/09/01 08:48:40;;;;;;;8.18;3.13;;;;;;;;;;4983390;28;93071;-79
2023/09/01 08:51:08;;;;;;;7.65;2.60;;;;;;;;;;4984718;28;93013;-79
2023/09/01 08:53:38;;;;;;;6.60;2.47;;;;;;;;;;4980806;28;95512;-81
2023/09/01 08:56:05;;;;;;;8.70;2.67;;;;;;;;;;4985178;28;95559;-79
2023/09/01 08:58:32;;;;;;;8.50;2.70;;;;;;;;;;4966489;28;96431;-78
2023/09/01 09:00:59;;;;;;;9.60;3.05;;;;;;;;;;4985144;28;93174;-79
2023/09/01 09:03:25;;;;;;;6.70;2.53;;;;;;;;;;4969408;28;95618;-79
2023/09/01 09:05:52;;;;;;;7.65;2.80;;;;;;;;;;4991473;28;92914;-79
2023/09/01 09:08:22;;;;;;;9.57;3.40;;;;;;;;;;4987469;28;92744;-80
2023/09/01 09:10:51;;;;;;;8.60;3.28;;;;;;;;;;4969343;28;95618;-80
2023/09/01 09:13:21;;;;;;;7.22;2.80;;;;;;;;;;4964139;28;92963;-80
2023/09/01 09:16:06;;;;;;;11.77;5.47;;;;;;;;;;4970294;28;93283;-80
2023/09/01 09:18:33;;;;;;;11.02;5.05;;;;;;;;;;4962169;28;95665;-79
2023/09/01 09:21:00;;;;;;;;;;;;;;;;;;4976199;28;93235;-80
2023/09/01 09:23:53;;;;;;;10.52;3.50;;;;;;;;;;4977214;28;107429;-79
2023/09/01 09:26:36;;;;;;;;;;;;;;;;;;4975491;28;93672;-79
2023/09/01 09:29:06;;;;;;;9.35;3.55;;;;;;;;;;4978176;28;112228;-80
2023/09/01 09:31:36;;;;;;;8.32;3.22;;;;;;;;;;4957334;28;94110;-80
2023/09/01 09:34:12;;;;;;;9.52;3.13;;;;;;;;;;4977080;28;93247;-80
2023/09/01 09:36:39;;;;;;;10.13;4.38;;;;;;;;;;4957630;28;93315;-79
2023/09/01 09:39:09;;;;;;;10.35;3.22;;;;;;;;;;4975347;28;93647;-80
2023/09/01 09:41:47;;;;;;;7.88;3.05;;;;;;;;;;4975367;28;93219;-80
2023/09/01 09:44:21;;;;;;;9.88;3.75;;;;;;;;;;4975082;28;95491;-81
2023/09/01 09:46:49;;;;;;;;;;;;;;;;;;4976285;28;93250;-82
2023/09/01 09:49:15;;;;;;;6.10;2.58;;;;;;;;;;4978445;28;104165;-81
2023/09/01 09:51:42;;;;;;;6.28;2.45;;;;;;;;;;4979194;28;93932;-81
2023/09/01 09:54:09;;;;;;;8.45;3.00;;;;;;;;;;4957041;28;93200;-80
2023/09/01 09:56:37;;;;;;;7.80;3.28;;;;;;;;;;4977382;28;93230;-80
2023/09/01 09:59:04;;;;;;;7.30;2.50;;;;;;;;;;4977656;28;94392;-80
2023/09/01 10:01:34;;;;;;;5.93;2.47;;;;;;;;;;4984544;28;92152;-80
2023/09/01 10:04:07;;;;;;;7.28;2.60;;;;;;;;;;4977062;28;93645;-79
2023/09/01 10:06:34;;;;;;;6.60;2.50;;;;;;;;;;4979108;28;94650;-80
2023/09/01 10:09:04;;;;;;;7.28;2.42;;;;;;;;;;4977899;28;95711;-81
2023/09/01 10:11:30;;;;;;;7.63;2.50;;;;;;;;;;4983972;28;94304;-82
2023/09/01 10:13:58;;;;;;;8.50;2.70;;;;;;;;;;4981028;28;92941;-81
2023/09/01 10:16:25;;;;;;;6.40;2.30;;;;;;;;;;4977132;28;93053;-80
2023/09/01 10:18:52;;;;;;;8.00;2.70;;;;;;;;;;4979615;28;94256;-81
2023/09/01 10:21:20;;;;;;;8.82;2.70;;;;;;;;;;4959035;28;92651;-80
2023/09/01 10:23:46;;;;;;;;;;;;;;;;;;4977158;28;93598;-81
2023/09/01 10:26:17;;;;;;;6.22;2.38;;;;;;;;;;4959790;28;107739;-81
2023/09/01 10:28:54;;;;;;;6.88;2.60;;;;;;;;;;4976094;28;92947;-81
2023/09/01 10:31:21;;;;;;;6.20;2.33;;;;;;;;;;4977678;28;93297;-81
2023/09/01 10:33:47;;;;;;;6.65;2.50;;;;;;;;;;4959566;28;95871;-81
2023/09/01 10:36:14;;;;;;;8.02;2.83;;;;;;;;;;4981365;28;95679;-81
2023/09/01 10:38:41;;;;;;;8.27;3.22;;;;;;;;;;4987893;28;94164;-81
2023/09/01 10:41:07;;;;;;;9.00;3.33;;;;;;;;;;4968124;28;92998;-81
2023/09/01 10:43:37;;;;;;;9.93;3.03;;;;;;;;;;4988518;28;93012;-81
2023/09/01 10:46:13;;;;;;;7.60;2.45;;;;;;;;;;5000647;28;93194;-80
2023/09/01 10:48:49;;;;;;;7.55;2.60;;;;;;;;;;4999564;28;92329;-79
2023/09/01 10:51:43;;;;;;;8.57;2.55;;;;;;;;;;4997524;28;92212;-80
2023/09/01 10:54:09;;;;;;;13.68;4.28;;;;;;;;;;4968138;28;93464;-81
2023/09/01 10:56:54;;;;;;;10.40;4.20;;;;;;;;;;4999620;28;92952;-80
2023/09/01 10:59:27;;;;;;;10.15;4.50;;;;;;;;;;4969208;28;96856;-79
2023/09/01 11:01:54;;;;;;;12.32;5.03;;;;;;;;;;4972512;28;93287;-79
2023/09/01 11:04:20;;;;;;;7.25;3.00;;;;;;;;;;4995027;28;93106;-79
2023/09/01 11:06:56;;;;;;;9.48;4.75;;;;;;;;;;4988624;28;92513;-79
2023/09/01 11:09:23;;;;;;;10.05;3.40;;;;;;;;;;4994684;28;93930;-79
2023/09/01 11:11:49;;;;;;;12.48;5.50;;;;;;;;;;4989244;28;93450;-80
2023/09/01 11:14:20;;;;;;;10.63;5.47;;;;;;;;;;4968661;28;93057;-79
2023/09/01 11:16:46;;;;;;;9.07;4.53;;;;;;;;;;4967478;28;93351;-80
2023/09/01 11:19:13;;;;;;;8.70;3.72;;;;;;;;;;4969449;28;93545;-79
2023/09/01 11:21:42;;;;;;;10.35;5.70;;;;;;;;;;4976782;28;94284;-81
2023/09/01 11:24:09;;;;;;;9.32;3.65;;;;;;;;;;4975181;28;95730;-80
2023/09/01 11:26:38;;;;;;;11.05;5.72;;;;;;;;;;4967273;28;93052;-81
2023/09/01 11:29:11;;;;;;;12.20;6.07;;;;;;;;;;4985589;28;93059;-81
2023/09/01 11:31:38;;;;;;;11.05;4.72;;;;;;;;;;4984741;28;92848;-81
2023/09/01 11:34:05;;;;;;;7.63;2.80;;;;;;;;;;4987287;28;93956;-81
2023/09/01 11:36:31;;;;;;;9.30;4.25;;;;;;;;;;4977225;28;92928;-81
2023/09/01 11:38:58;;;;;;;10.48;4.70;;;;;;;;;;4984590;28;94246;-80
2023/09/01 11:41:26;;;;;;;10.75;4.78;;;;;;;;;;4984484;28;92940;-80
2023/09/01 11:43:56;;;;;;;6.95;2.80;;;;;;;;;;4978041;28;93066;-80
2023/09/01 11:46:32;;;;;;;9.82;4.80;;;;;;;;;;4981447;28;93926;-80
2023/09/01 11:49:00;;;;;;;14.27;5.35;;;;;;;;;;4985434;28;95302;-80
2023/09/01 11:51:40;;;;;;;11.15;5.10;;;;;;;;;;4984910;28;95287;-80
2023/09/01 11:54:07;;;;;;;9.15;2.88;;;;;;;;;;4982798;28;94383;-81
2023/09/01 11:56:34;;;;;;;9.02;4.35;;;;;;;;;;4984227;28;93869;-80
2023/09/01 11:59:01;;;;;;;11.68;5.53;;;;;;;;;;4963624;28;95420;-80
2023/09/01 12:01:29;;;;;;;10.70;5.15;;;;;;;;;;4983849;28;93786;-80
2023/09/01 12:04:03;;;;;;;10.10;5.20;;;;;;;;;;4968733;28;92628;-80
2023/09/01 12:06:29;;;;;;;6.65;3.00;;;;;;;;;;4981927;28;92256;-80
2023/09/01 12:09:12;;;;;;;11.32;5.28;;;;;;;;;;4984160;28;92892;-81
2023/09/01 12:11:51;;;;;;;9.88;4.65;;;;;;;;;;4987695;28;93313;-81
2023/09/01 12:14:25;;;;;;;12.50;4.50;;;;;;;;;;4982631;28;95606;-80
2023/09/01 12:16:53;;;;;;;9.35;3.85;;;;;;;;;;4982097;28;92862;-80
2023/09/01 12:19:20;;;;;;;10.38;5.10;;;;;;;;;;4979997;28;93467;-80
2023/09/01 12:21:47;;;;;;;11.80;5.75;;;;;;;;;;4987447;28;93135;-80
2023/09/01 12:24:14;;;;;;;7.50;2.70;;;;;;;;;;4991009;28;93104;-80
2023/09/01 12:26:40;;;;;;;7.55;2.60;;;;;;;;;;4987626;28;93196;-82
2023/09/01 12:29:07;;;;;;;12.40;5.50;;;;;;;;;;4975862;28;93084;-82
2023/09/01 12:31:33;;;;;;;10.52;5.00;;;;;;;;;;4988412;28;93010;-82
2023/09/01 12:34:00;;;;;;;9.82;4.15;;;;;;;;;;4980543;28;93099;-82
2023/09/01 12:36:27;;;;;;;9.60;4.90;;;;;;;;;;4987634;28;92489;-82
2023/09/01 12:38:53;;;;;;;11.75;5.38;;;;;;;;;;4987838;28;95196;-81
2023/09/01 12:41:19;;;;;;;5.88;2.65;;;;;;;;;;4971225;28;93210;-83
2023/09/01 12:43:46;;;;;;;7.43;2.70;;;;;;;;;;4971093;28;92530;-82
2023/09/01 12:46:13;;;;;;;6.32;2.30;;;;;;;;;;4991111;28;92863;-82
2023/09/01 12:48:40;;;;;;;6.25;2.70;;;;;;;;;;4988755;28;92379;-82
2023/09/01 12:51:06;;;;;;;12.27;2.60;;;;;;;;;;4989614;28;93053;-82
2023/09/01 12:53:33;;;;;;;8.93;2.70;;;;;;;;;;4988538;28;93478;-82
2023/09/01 12:56:00;;;;;;;6.72;2.70;;;;;;;;;;4989761;28;91711;-81
2023/09/01 12:58:28;;;;;;;7.03;2.53;;;;;;;;;;4979441;28;94673;-82
2023/09/01 13:01:00;;;;;;;6.50;2.50;;;;;;;;;;4974624;28;93051;-82
2023/09/01 13:03:27;;;;;;;6.88;2.60;;;;;;;;;;4985723;28;94873;-82
2023/09/01 13:05:54;;;;;;;7.22;2.90;;;;;;;;;;4987586;28;96402;-82
2023/09/01 13:08:20;;;;;;;5.38;2.70;;;;;;;;;;4955592;28;95597;-81
2023/09/01 13:10:47;;;;;;;5.68;2.47;;;;;;;;;;4983954;28;92971;-81
2023/09/01 13:13:14;;;;;;;6.15;2.60;;;;;;;;;;4977472;28;93215;-82
2023/09/01 13:15:41;;;;;;;6.78;2.90;;;;;;;;;;4982341;28;93054;-80
2023/09/01 13:18:08;;;;;;;8.05;2.28;;;;;;;;;;4988853;28;93127;-81
2023/09/01 13:20:35;;;;;;;6.95;2.60;;;;;;;;;;4988237;28;92497;-81
2023/09/01 13:23:01;;;;;;;6.40;2.33;;;;;;;;;;4976555;28;92830;-81
2023/09/01 13:25:28;;;;;;;5.97;2.20;;;;;;;;;;4989183;28;92571;-81
2023/09/01 13:27:54;;;;;;;5.03;1.95;;;;;;;;;;4982671;28;95935;-81
2023/09/01 13:30:21;;;;;;;4.50;2.10;;;;;;;;;;4982932;28;93273;-81
2023/09/01 13:32:47;;;;;;;5.13;2.00;;;;;;;;;;4988250;28;93163;-82
2023/09/01 13:35:14;;;;;;;4.93;1.83;;;;;;;;;;4988782;28;92588;-82
2023/09/01 13:37:41;;;;;;;4.22;2.00;;;;;;;;;;4988741;28;92897;-81
2023/09/01 13:40:07;;;;;;;4.50;2.10;;;;;;;;;;4988416;28;93026;-81
2023/09/01 13:42:34;;;;;;;3.70;1.80;;;;;;;;;;4989280;28;92444;-81
2023/09/01 13:45:01;;;;;;;4.65;1.77;;;;;;;;;;4971722;28;92971;-81
2023/09/01 13:47:27;;;;;;;3.45;1.80;;;;;;;;;;4989111;28;94884;-81
2023/09/01 13:49:55;;;;;;;3.25;1.65;;;;;;;;;;4993035;28;92505;-81
2023/09/01 13:52:22;;;;;;;4.60;2.05;;;;;;;;;;4993297;28;94866;-82
2023/09/01 13:54:49;;;;;;;3.95;1.60;;;;;;;;;;4992156;28;92539;-81
2023/09/01 13:57:15;;;;;;;5.15;1.77;;;;;;;;;;4992226;28;93267;-82
2023/09/01 13:59:42;;;;;;;4.43;1.77;;;;;;;;;;4991593;28;93367;-81
2023/09/01 14:02:09;;;;;;;3.60;1.73;;;;;;;;;;4973387;28;92591;-81
2023/09/01 14:04:35;;;;;;;5.00;1.70;;;;;;;;;;4992090;28;92875;-82
2023/09/01 14:07:03;;;;;;;4.00;1.85;;;;;;;;;;4978180;28;93130;-82
2023/09/01 14:09:29;;;;;;;3.17;1.80;;;;;;;;;;4993043;28;92428;-82
2023/09/01 14:11:59;;;;;;;4.32;1.70;;;;;;;;;;4993548;28;92372;-82
2023/09/01 14:14:26;;;;;;;3.95;1.70;;;;;;;;;;4996396;28;93077;-82
2023/09/01 14:16:53;;;;;;;4.50;1.60;;;;;;;;;;4956090;28;95565;-81
2023/09/01 14:19:20;;;;;;;4.10;1.60;;;;;;;;;;4969284;28;93634;-81
2023/09/01 14:21:46;;;;;;;4.45;1.70;;;;;;;;;;4972280;28;92634;-81
2023/09/01 14:24:13;;;;;;;3.88;1.70;;;;;;;;;;4971852;28;93328;-81
2023/09/01 14:26:40;;;;;;;3.40;1.42;;;;;;;;;;4969458;28;94661;-81
2023/09/01 14:29:07;;;;;;;4.00;1.70;;;;;;;;;;4965373;28;92500;-83
2023/09/01 14:31:33;;;;;;;4.00;1.60;;;;;;;;;;4952918;28;92807;-82
2023/09/01 14:34:00;;;;;;;2.90;1.60;;;;;;;;;;4964674;28;92050;-80
2023/09/01 14:36:27;;;;;;;4.65;1.70;;;;;;;;;;4964042;28;92463;-81
2023/09/01 14:38:54;;;;;;;3.58;1.73;;;;;;;;;;4958189;28;94291;-81
2023/09/01 14:41:21;;;;;;;;;;;;;;;;;;4951820;28;95081;-81
2023/09/01 14:43:48;;;;;;;3.20;1.55;;;;;;;;;;4957694;28;109694;-81
2023/09/01 14:46:17;;;;;;;4.30;1.70;;;;;;;;;;4958994;28;94005;-81
2023/09/01 14:48:45;;;;;;;4.10;1.70;;;;;;;;;;4961323;28;93830;-80